Time;durP1;ratioP1;P1;durP2;ratioP2;P2;SDS_P1;SDS_P2;PMS_P1;PMS_P2;Temp;Humidity;BMP_temperature;BMP_pressure;BME280_temperature;BME280_humidity;BME280_pressure;Samples;Min_cycle;Max_cycle;Signal;HPM_P1;HPM_P2
2023/03/06 00:00:05;;;;;;;4.35;1.00;;;3.10;81.10;;;;;;5080138;28;20623;-75
2023/03/06 00:02:40;;;;;;;5.93;1.00;;;3.10;81.10;;;;;;5067012;28;20041;-75
2023/03/06 00:05:07;;;;;;;7.23;1.23;;;3.10;81.20;;;;;;5073843;28;20053;-75
2023/03/06 00:07:34;;;;;;;6.68;0.80;;;3.10;81.20;;;;;;5079935;28;20056;-75
2023/03/06 00:10:01;;;;;;;5.70;1.00;;;3.00;81.20;;;;;;5075518;28;20487;-75
2023/03/06 00:12:28;;;;;;;7.88;1.00;;;3.10;81.20;;;;;;5072451;28;20137;-75
2023/03/06 00:14:55;;;;;;;5.28;1.05;;;3.10;81.40;;;;;;5079866;28;20049;-75
2023/03/06 00:17:22;;;;;;;2.57;0.40;;;3.10;81.20;;;;;;5074958;28;20125;-75
2023/03/06 00:19:50;;;;;;;4.78;0.70;;;3.10;81.30;;;;;;5078698;28;20052;-75
2023/03/06 00:22:17;;;;;;;3.72;0.75;;;3.10;81.00;;;;;;5074697;28;20047;-75
2023/03/06 00:24:44;;;;;;;4.93;1.00;;;3.10;81.10;;;;;;5089493;28;20133;-75
2023/03/06 00:27:11;;;;;;;4.30;0.90;;;3.00;81.10;;;;;;5076848;28;20585;-75
2023/03/06 00:29:38;;;;;;;5.07;0.63;;;3.00;81.40;;;;;;5093938;27;20546;-75
2023/03/06 00:32:07;;;;;;;5.25;0.70;;;3.00;81.30;;;;;;5070644;28;20056;-75
2023/03/06 00:34:34;;;;;;;4.85;0.68;;;3.00;81.30;;;;;;5089120;28;20104;-75
2023/03/06 00:37:02;;;;;;;3.00;0.52;;;3.00;81.40;;;;;;5072230;28;20160;-75
2023/03/06 00:39:29;;;;;;;5.80;0.90;;;3.00;81.60;;;;;;5073416;28;20861;-75
2023/03/06 00:41:56;;;;;;;4.77;0.70;;;3.00;81.40;;;;;;5069243;28;20077;-75
2023/03/06 00:44:25;;;;;;;5.88;0.95;;;3.00;81.30;;;;;;5090156;27;20091;-75
2023/03/06 00:46:52;;;;;;;4.10;0.70;;;3.00;81.60;;;;;;5073468;28;21469;-75
2023/03/06 00:49:19;;;;;;;5.35;1.25;;;3.00;81.50;;;;;;5091724;27;20539;-75
2023/03/06 00:51:46;;;;;;;5.13;1.25;;;3.00;81.60;;;;;;5060376;28;20106;-75
2023/03/06 00:54:14;;;;;;;3.93;0.77;;;3.00;81.70;;;;;;5092951;27;20517;-75
2023/03/06 00:56:41;;;;;;;5.20;0.80;;;3.00;81.90;;;;;;5069706;28;20045;-74
2023/03/06 00:59:08;;;;;;;4.45;1.13;;;3.00;81.80;;;;;;5100910;27;20049;-75
2023/03/06 01:01:35;;;;;;;3.75;0.80;;;3.00;81.90;;;;;;5078987;28;20053;-74
2023/03/06 01:04:02;;;;;;;5.15;0.95;;;3.00;82.00;;;;;;5107960;27;20102;-75
2023/03/06 01:06:29;;;;;;;5.53;0.90;;;3.00;82.00;;;;;;5087273;28;20048;-75
2023/03/06 01:08:56;;;;;;;4.07;1.00;;;3.10;82.00;;;;;;5066304;28;20605;-75
2023/03/06 01:11:27;;;;;;;6.53;0.95;;;3.00;82.10;;;;;;5088940;28;20658;-75
2023/03/06 01:13:54;;;;;;;5.95;1.10;;;3.10;82.00;;;;;;5088687;28;20532;-74
2023/03/06 01:16:21;;;;;;;4.35;1.13;;;3.10;82.10;;;;;;5070744;28;20132;-74
2023/03/06 01:18:49;;;;;;;4.80;0.90;;;3.10;82.10;;;;;;5087168;27;20056;-75
2023/03/06 01:21:16;;;;;;;4.20;0.80;;;3.10;82.20;;;;;;5061562;28;20114;-75
2023/03/06 01:23:43;;;;;;;4.22;1.00;;;3.10;82.10;;;;;;5068361;28;20132;-75
2023/03/06 01:26:10;;;;;;;3.65;0.70;;;3.10;82.10;;;;;;5066792;28;20246;-75
2023/03/06 01:28:39;;;;;;;4.43;0.90;;;3.10;82.10;;;;;;5086799;27;20075;-75
2023/03/06 01:31:07;;;;;;;4.13;0.97;;;3.10;82.20;;;;;;5070689;28;20053;-75
2023/03/06 01:33:35;;;;;;;3.55;0.70;;;3.10;82.30;;;;;;5075406;28;20784;-75
2023/03/06 01:36:05;;;;;;;4.88;1.13;;;3.10;82.40;;;;;;5081840;28;20542;-75
2023/03/06 01:38:32;;;;;;;3.78;0.60;;;3.10;82.20;;;;;;5071086;28;20095;-75
2023/03/06 01:40:59;;;;;;;6.15;0.90;;;3.10;82.30;;;;;;5069437;28;20249;-75
2023/03/06 01:43:30;;;;;;;5.17;1.20;;;3.10;82.30;;;;;;5085591;28;20049;-75
2023/03/06 01:46:41;;;;;;;4.65;0.70;;;3.10;82.50;;;;;;5077518;28;20582;-75
2023/03/06 01:49:16;;;;;;;4.70;0.85;;;3.10;82.50;;;;;;5069543;28;20071;-75
2023/03/06 01:51:48;;;;;;;3.55;0.63;;;3.10;82.50;;;;;;5061746;28;20150;-74
2023/03/06 01:54:20;;;;;;;4.65;0.60;;;3.10;82.40;;;;;;5108811;27;20526;-75
2023/03/06 01:56:50;;;;;;;3.70;0.77;;;3.10;82.50;;;;;;5070909;28;20060;-75
2023/03/06 01:59:18;;;;;;;5.25;1.15;;;3.10;82.40;;;;;;5093701;27;20091;-75
2023/03/06 02:01:46;;;;;;;4.50;1.00;;;3.10;82.50;;;;;;5055360;28;20095;-75
2023/03/06 02:04:17;;;;;;;5.68;0.90;;;3.10;82.60;;;;;;5075991;28;20044;-75
2023/03/06 02:06:44;;;;;;;4.68;0.73;;;3.10;82.70;;;;;;5069481;28;20762;-75
2023/03/06 02:09:12;;;;;;;3.23;0.70;;;3.10;82.80;;;;;;5111813;27;20654;-75
2023/03/06 02:11:42;;;;;;;6.28;0.80;;;3.10;82.80;;;;;;5056807;28;20135;-74
2023/03/06 02:14:11;;;;;;;3.85;0.63;;;3.10;82.90;;;;;;5060578;28;20450;-75
2023/03/06 02:16:39;;;;;;;4.25;0.70;;;3.10;82.90;;;;;;5069068;28;20048;-75
2023/03/06 02:19:08;;;;;;;3.80;0.70;;;3.10;83.10;;;;;;5087508;28;20071;-75
2023/03/06 02:21:37;;;;;;;3.57;0.80;;;3.10;83.10;;;;;;5052912;28;20608;-75
2023/03/06 02:24:16;;;;;;;5.40;0.90;;;3.10;83.20;;;;;;5067530;28;20590;-75
2023/03/06 02:26:45;;;;;;;5.68;0.60;;;3.10;83.30;;;;;;5066855;28;20056;-75
2023/03/06 02:29:14;;;;;;;4.25;0.70;;;3.10;83.30;;;;;;5093313;27;20048;-75
2023/03/06 02:31:42;;;;;;;3.88;0.70;;;3.10;83.40;;;;;;5052282;28;20052;-74
2023/03/06 02:34:51;;;;;;;3.87;0.80;;;3.10;83.30;;;;;;5093385;27;20052;-75
2023/03/06 02:37:18;;;;;;;3.53;0.70;;;3.10;83.40;;;;;;5067573;28;20142;-75
2023/03/06 02:39:50;;;;;;;2.95;0.47;;;3.10;83.40;;;;;;5109327;27;20049;-75
2023/03/06 02:42:21;;;;;;;3.55;0.50;;;3.10;83.50;;;;;;5084696;27;20537;-75
2023/03/06 02:44:49;;;;;;;4.85;0.80;;;3.10;83.40;;;;;;5084578;28;20546;-75
2023/03/06 02:47:16;;;;;;;4.23;0.37;;;3.10;83.40;;;;;;5050521;28;20080;-75
2023/03/06 02:49:44;;;;;;;3.05;0.50;;;3.10;83.80;;;;;;5116728;27;20106;-75
2023/03/06 02:52:11;;;;;;;4.75;0.70;;;3.20;83.90;;;;;;5084466;28;20123;-75
2023/03/06 02:54:39;;;;;;;3.17;0.35;;;3.20;84.00;;;;;;5094815;27;20060;-75
2023/03/06 02:57:07;;;;;;;2.50;0.38;;;3.20;84.30;;;;;;5100965;27;20049;-75
2023/03/06 02:59:36;;;;;;;3.87;0.50;;;3.20;84.20;;;;;;5087922;27;20060;-75
2023/03/06 03:02:06;;;;;;;4.47;0.50;;;3.10;84.50;;;;;;5053968;28;20049;-75
2023/03/06 03:04:34;;;;;;;3.85;0.40;;;3.10;84.40;;;;;;5111327;27;20348;-75
2023/03/06 03:07:01;;;;;;;4.03;0.55;;;3.10;84.30;;;;;;5084092;28;20048;-75
2023/03/06 03:09:28;;;;;;;4.85;0.50;;;3.20;84.50;;;;;;5080685;28;20131;-75
2023/03/06 03:11:55;;;;;;;6.17;0.70;;;3.10;84.70;;;;;;5066910;28;20049;-75
2023/03/06 03:14:25;;;;;;;2.70;0.55;;;3.20;84.80;;;;;;5109261;27;20087;-75
2023/03/06 03:16:54;;;;;;;2.78;0.50;;;3.20;85.10;;;;;;5069838;28;20558;-75
2023/03/06 03:19:21;;;;;;;3.97;0.50;;;3.20;84.90;;;;;;5087860;28;20115;-75
2023/03/06 03:21:48;;;;;;;1.95;0.30;;;3.20;85.30;;;;;;5067206;28;20073;-75
2023/03/06 03:24:15;;;;;;;4.17;0.70;;;3.30;86.10;;;;;;5096927;28;20199;-75
2023/03/06 03:26:43;;;;;;;3.38;0.40;;;3.30;86.00;;;;;;5067899;28;20045;-75
2023/03/06 03:29:14;;;;;;;2.40;0.50;;;3.30;86.40;;;;;;5068163;28;20041;-75
2023/03/06 03:31:41;;;;;;;4.05;0.50;;;3.30;86.70;;;;;;5083374;27;20433;-75
2023/03/06 03:34:10;;;;;;;1.40;0.25;;;3.30;86.70;;;;;;5086452;27;20500;-76
2023/03/06 03:36:39;;;;;;;1.60;0.30;;;3.30;86.70;;;;;;5107203;27;20076;-75
2023/03/06 03:39:09;;;;;;;2.53;0.50;;;3.30;86.80;;;;;;5079475;28;20628;-75
2023/03/06 03:41:36;;;;;;;2.63;0.50;;;3.30;87.40;;;;;;5053213;28;20115;-75
2023/03/06 03:44:07;;;;;;;2.55;0.30;;;3.20;87.20;;;;;;5087965;28;20106;-75
2023/03/06 03:46:34;;;;;;;3.13;0.47;;;3.20;87.30;;;;;;5069650;28;20103;-75
2023/03/06 03:49:03;;;;;;;2.53;0.50;;;3.10;87.60;;;;;;5094694;27;20076;-75
2023/03/06 03:51:32;;;;;;;1.67;0.30;;;3.10;87.80;;;;;;5103995;27;20329;-75
2023/03/06 03:54:00;;;;;;;1.40;0.30;;;3.10;87.80;;;;;;5123377;27;20521;-75
2023/03/06 03:56:32;;;;;;;1.60;0.20;;;3.10;88.00;;;;;;5056962;28;20052;-75
2023/03/06 03:59:09;;;;;;;0.98;0.10;;;3.10;87.80;;;;;;5099148;28;20044;-75
2023/03/06 04:01:44;;;;;;;1.57;0.20;;;3.10;87.80;;;;;;5087432;28;20044;-75
2023/03/06 04:04:11;;;;;;;1.73;0.20;;;3.10;87.70;;;;;;5070374;28;20336;-75
2023/03/06 04:06:41;;;;;;;2.08;0.32;;;3.10;87.60;;;;;;5086270;27;20474;-75
2023/03/06 04:09:08;;;;;;;1.98;0.30;;;3.10;87.50;;;;;;5114228;27;20152;-75
2023/03/06 04:11:37;;;;;;;2.53;0.28;;;3.10;87.30;;;;;;5058775;28;20161;-75
2023/03/06 04:14:07;;;;;;;2.07;0.23;;;3.10;87.30;;;;;;5113953;27;20434;-75
2023/03/06 04:16:34;;;;;;;2.10;0.55;;;3.10;87.20;;;;;;5103349;28;20132;-75
2023/03/06 04:19:01;;;;;;;3.22;0.20;;;3.10;87.00;;;;;;5099189;27;20074;-75
2023/03/06 04:21:28;;;;;;;3.55;0.38;;;3.10;87.10;;;;;;5070921;28;20048;-74
2023/03/06 04:23:57;;;;;;;1.67;0.20;;;3.10;87.20;;;;;;5117559;27;20049;-75
2023/03/06 04:26:24;;;;;;;1.90;0.20;;;3.20;86.90;;;;;;5086582;27;20052;-75
2023/03/06 04:28:51;;;;;;;2.33;0.22;;;3.20;86.80;;;;;;5088103;28;20898;-75
2023/03/06 04:31:20;;;;;;;1.35;0.22;;;3.20;86.60;;;;;;5069220;28;20049;-74
2023/03/06 04:33:47;;;;;;;1.55;0.30;;;3.20;86.40;;;;;;5115279;27;20088;-75
2023/03/06 04:36:28;;;;;;;1.65;0.30;;;3.20;86.50;;;;;;5089078;28;20562;-75
2023/03/06 04:39:00;;;;;;;2.27;0.30;;;3.30;86.40;;;;;;5085800;28;20053;-75
2023/03/06 04:41:27;;;;;;;2.40;0.50;;;3.30;86.10;;;;;;5085466;27;20529;-75
2023/03/06 04:43:54;;;;;;;4.25;0.57;;;3.30;85.90;;;;;;5081396;28;20491;-75
2023/03/06 04:46:21;;;;;;;2.25;0.40;;;3.30;85.80;;;;;;5076134;28;20067;-75
2023/03/06 04:48:48;;;;;;;2.05;0.43;;;3.30;85.70;;;;;;5079086;28;20041;-75
2023/03/06 04:51:18;;;;;;;2.50;0.33;;;3.40;85.60;;;;;;5069757;28;20259;-75
2023/03/06 04:53:45;;;;;;;2.10;0.40;;;3.40;85.50;;;;;;5081428;28;20059;-75
2023/03/06 04:56:14;;;;;;;2.10;0.30;;;3.40;85.40;;;;;;5071992;28;20064;-75
2023/03/06 04:58:41;;;;;;;2.08;0.40;;;3.50;85.30;;;;;;5077030;28;20053;-75
2023/03/06 05:01:08;;;;;;;2.00;0.40;;;3.50;85.20;;;;;;5076842;28;20053;-75
2023/03/06 05:03:35;;;;;;;2.40;0.40;;;3.50;85.00;;;;;;5088272;28;20155;-75
2023/03/06 05:06:02;;;;;;;1.80;0.25;;;3.50;84.80;;;;;;5082767;28;20122;-75
2023/03/06 05:08:29;;;;;;;2.17;0.32;;;3.50;84.70;;;;;;5083057;28;20590;-75
2023/03/06 05:10:57;;;;;;;1.80;0.30;;;3.50;84.60;;;;;;5086497;28;20052;-75
2023/03/06 05:13:26;;;;;;;3.03;0.40;;;3.50;84.50;;;;;;5082498;28;20537;-74
2023/03/06 05:15:54;;;;;;;2.10;0.40;;;3.50;84.20;;;;;;5069920;28;20053;-74
2023/03/06 05:18:21;;;;;;;2.17;0.38;;;3.50;84.00;;;;;;5070638;28;20515;-75
2023/03/06 05:20:47;;;;;;;2.15;0.40;;;3.50;83.90;;;;;;5075980;28;20152;-75
2023/03/06 05:23:14;;;;;;;1.83;0.30;;;3.50;83.90;;;;;;5083946;28;20063;-74
2023/03/06 05:25:41;;;;;;;3.15;0.40;;;3.40;83.60;;;;;;5068287;28;20155;-75
2023/03/06 05:28:08;;;;;;;2.13;0.40;;;3.40;83.60;;;;;;5078215;28;20079;-74
2023/03/06 05:30:37;;;;;;;2.00;0.30;;;3.50;83.60;;;;;;5074467;28;20049;-75
2023/03/06 05:33:04;;;;;;;2.05;0.30;;;3.50;83.50;;;;;;5075534;28;20127;-74
2023/03/06 05:35:31;;;;;;;3.40;0.30;;;3.40;83.40;;;;;;5069741;28;20461;-75
2023/03/06 05:37:57;;;;;;;2.10;0.30;;;3.40;83.40;;;;;;5085287;28;20148;-75
2023/03/06 05:40:24;;;;;;;2.50;0.27;;;3.40;83.40;;;;;;5074525;28;20138;-75
2023/03/06 05:42:51;;;;;;;2.20;0.22;;;3.40;83.40;;;;;;5075665;28;20075;-75
2023/03/06 05:45:19;;;;;;;2.40;0.35;;;3.50;83.40;;;;;;5087881;28;20143;-76
2023/03/06 05:47:47;;;;;;;2.80;0.30;;;3.50;83.20;;;;;;5080652;28;20052;-75
2023/03/06 05:50:14;;;;;;;2.17;0.30;;;3.50;83.10;;;;;;5070990;28;20144;-74
2023/03/06 05:52:41;;;;;;;1.73;0.20;;;3.50;83.00;;;;;;5068158;28;20154;-74
2023/03/06 05:55:11;;;;;;;1.95;0.35;;;3.50;82.90;;;;;;5067824;28;20073;-75
2023/03/06 05:57:38;;;;;;;3.05;0.30;;;3.50;82.90;;;;;;5089884;27;20048;-74
2023/03/06 06:00:07;;;;;;;1.85;0.30;;;3.50;82.80;;;;;;5071118;28;20045;-75
2023/03/06 06:02:39;;;;;;;1.85;0.30;;;3.50;82.70;;;;;;5105486;27;20049;-74
2023/03/06 06:05:09;;;;;;;3.73;0.40;;;3.50;82.50;;;;;;5077883;28;20072;-74
2023/03/06 06:07:36;;;;;;;2.00;0.30;;;3.50;82.40;;;;;;5076088;28;20048;-74
2023/03/06 06:10:04;;;;;;;2.55;0.40;;;3.50;82.30;;;;;;5068003;28;20053;-75
2023/03/06 06:12:31;;;;;;;2.30;0.35;;;3.50;82.20;;;;;;5079858;28;20055;-74
2023/03/06 06:14:58;;;;;;;1.70;0.30;;;3.50;82.10;;;;;;5077687;28;20049;-74
2023/03/06 06:17:25;;;;;;;1.87;0.30;;;3.50;82.00;;;;;;5072117;28;20540;-75
2023/03/06 06:19:52;;;;;;;2.85;0.50;;;3.50;81.90;;;;;;5085317;28;20069;-74
2023/03/06 06:22:20;;;;;;;2.20;0.40;;;3.50;81.70;;;;;;5082750;28;20091;-75
2023/03/06 06:24:47;;;;;;;2.67;0.60;;;3.50;81.60;;;;;;5068526;28;20099;-75
2023/03/06 06:27:14;;;;;;;2.35;0.43;;;3.50;81.50;;;;;;5075105;28;20195;-74
2023/03/06 06:29:41;;;;;;;3.13;0.40;;;3.50;81.20;;;;;;5102352;27;20456;-75
2023/03/06 06:32:08;;;;;;;2.60;0.40;;;3.50;81.20;;;;;;5082858;28;20490;-74
2023/03/06 06:34:35;;;;;;;2.95;0.40;;;3.50;80.80;;;;;;5068174;28;20049;-75
2023/03/06 06:37:02;;;;;;;2.00;0.30;;;3.50;80.60;;;;;;5103824;28;20137;-75
2023/03/06 06:39:30;;;;;;;2.88;0.40;;;3.50;80.80;;;;;;5083567;28;20138;-74
2023/03/06 06:41:57;;;;;;;2.90;0.50;;;3.40;80.90;;;;;;5066949;28;20053;-75
2023/03/06 06:44:24;;;;;;;2.55;0.50;;;3.40;80.90;;;;;;5076111;28;20598;-75
2023/03/06 06:46:51;;;;;;;2.05;0.50;;;3.50;80.80;;;;;;5076812;28;20052;-74
2023/03/06 06:49:18;;;;;;;2.30;0.45;;;3.40;80.70;;;;;;5082692;28;20499;-75
2023/03/06 06:51:45;;;;;;;2.05;0.50;;;3.50;80.80;;;;;;5083448;27;20171;-75
2023/03/06 06:54:12;;;;;;;2.33;0.47;;;3.50;80.50;;;;;;5095057;27;20498;-75
2023/03/06 06:56:41;;;;;;;2.17;0.40;;;3.40;80.50;;;;;;5096107;27;20076;-75
2023/03/06 06:59:08;;;;;;;2.78;0.95;;;3.40;80.50;;;;;;5078637;28;20072;-75
2023/03/06 07:01:35;;;;;;;3.25;0.55;;;3.40;80.50;;;;;;5080258;28;20061;-75
2023/03/06 07:04:02;;;;;;;2.63;0.60;;;3.40;80.50;;;;;;5076625;28;20537;-75
2023/03/06 07:06:29;;;;;;;2.90;0.50;;;3.40;80.40;;;;;;5081826;28;20052;-75
2023/03/06 07:08:56;;;;;;;2.40;0.50;;;3.40;80.50;;;;;;5077697;28;20131;-75
2023/03/06 07:11:23;;;;;;;3.25;0.60;;;3.40;80.50;;;;;;5081817;28;20080;-75
2023/03/06 07:13:51;;;;;;;4.80;0.82;;;3.40;80.40;;;;;;5090777;28;20127;-75
2023/03/06 07:16:18;;;;;;;2.28;0.57;;;3.40;80.50;;;;;;5089119;28;20076;-75
2023/03/06 07:18:45;;;;;;;2.63;0.70;;;3.40;80.50;;;;;;5071708;28;20083;-75
2023/03/06 07:21:13;;;;;;;3.67;0.50;;;3.40;80.40;;;;;;5086189;28;20056;-75
2023/03/06 07:23:40;;;;;;;3.15;0.60;;;3.30;80.30;;;;;;5091969;28;20131;-75
2023/03/06 07:26:07;;;;;;;2.97;0.55;;;3.40;80.30;;;;;;5089804;28;20053;-75
2023/03/06 07:28:34;;;;;;;2.53;0.60;;;3.30;80.10;;;;;;5084631;28;20044;-75
2023/03/06 07:31:07;;;;;;;2.73;0.50;;;3.30;80.10;;;;;;5082539;28;20068;-75
2023/03/06 07:33:34;;;;;;;2.80;0.50;;;3.30;80.30;;;;;;5084885;28;20044;-74
2023/03/06 07:36:01;;;;;;;3.90;0.65;;;3.30;80.30;;;;;;5084326;28;20083;-75
2023/03/06 07:38:28;;;;;;;2.97;0.70;;;3.30;80.20;;;;;;5089836;28;20053;-75
2023/03/06 07:40:55;;;;;;;3.33;1.10;;;3.30;80.10;;;;;;5086858;28;20048;-75
2023/03/06 07:43:22;;;;;;;3.43;0.90;;;3.30;80.00;;;;;;5085439;28;20063;-74
2023/03/06 07:45:59;;;;;;;3.75;0.80;;;3.10;80.00;;;;;;5088884;28;20151;-74
2023/03/06 07:48:27;;;;;;;3.20;0.63;;;3.10;80.10;;;;;;5080267;28;20167;-75
2023/03/06 07:50:56;;;;;;;3.03;0.60;;;3.00;80.30;;;;;;5087290;28;20544;-75
2023/03/06 07:53:23;;;;;;;2.45;0.52;;;2.90;80.50;;;;;;5085722;28;20057;-74
2023/03/06 07:55:50;;;;;;;2.70;0.63;;;2.80;80.70;;;;;;5093711;28;20135;-74
2023/03/06 07:58:17;;;;;;;3.08;0.60;;;2.70;81.10;;;;;;5104925;27;20044;-75
2023/03/06 08:00:44;;;;;;;4.35;0.75;;;2.60;81.70;;;;;;5108132;28;20088;-74
2023/03/06 08:03:11;;;;;;;4.05;0.73;;;2.50;82.00;;;;;;5082592;28;20511;-74
2023/03/06 08:05:40;;;;;;;3.85;0.90;;;2.50;82.20;;;;;;5089149;28;20492;-74
2023/03/06 08:08:08;;;;;;;2.87;0.60;;;2.50;82.00;;;;;;5083587;28;20041;-76
2023/03/06 08:10:35;;;;;;;2.70;0.60;;;2.50;82.10;;;;;;5086804;28;20607;-74
2023/03/06 08:13:02;;;;;;;2.95;0.60;;;2.50;82.20;;;;;;5088987;28;20158;-75
2023/03/06 08:15:29;;;;;;;2.53;0.60;;;2.50;82.20;;;;;;5088523;28;20118;-74
2023/03/06 08:17:56;;;;;;;2.95;0.50;;;2.50;82.00;;;;;;5093143;28;20048;-75
2023/03/06 08:20:23;;;;;;;2.53;0.40;;;2.40;82.20;;;;;;5074780;28;20159;-75
2023/03/06 08:22:51;;;;;;;2.92;0.60;;;2.40;82.30;;;;;;5089247;28;20128;-74
2023/03/06 08:25:18;;;;;;;3.33;0.70;;;2.40;82.40;;;;;;5089456;28;20202;-74
2023/03/06 08:27:46;;;;;;;3.47;0.75;;;2.40;82.50;;;;;;5072082;28;20052;-75
2023/03/06 08:30:14;;;;;;;2.92;0.70;;;2.40;82.60;;;;;;5087509;28;20056;-76
2023/03/06 08:32:41;;;;;;;3.57;0.60;;;2.50;82.90;;;;;;5091534;27;20226;-76
2023/03/06 08:35:08;;;;;;;2.22;0.50;;;2.50;83.10;;;;;;5088970;28;20265;-76
2023/03/06 08:37:35;;;;;;;2.15;0.28;;;2.50;83.30;;;;;;5087212;28;20609;-76
2023/03/06 08:40:04;;;;;;;3.90;0.57;;;2.60;83.40;;;;;;5083973;28;20051;-76
2023/03/06 08:42:31;;;;;;;2.90;0.43;;;2.60;83.30;;;;;;5084970;28;20135;-75
2023/03/06 08:44:58;;;;;;;5.37;0.70;;;2.60;83.50;;;;;;5088259;28;20048;-75
2023/03/06 08:47:25;;;;;;;3.22;0.65;;;2.60;83.30;;;;;;5084802;28;20111;-75
2023/03/06 08:49:52;;;;;;;3.00;0.60;;;2.70;83.40;;;;;;5073221;28;20600;-75
2023/03/06 08:52:19;;;;;;;4.03;1.00;;;2.70;83.40;;;;;;5088865;28;20065;-75
2023/03/06 08:54:46;;;;;;;3.03;1.08;;;2.80;83.40;;;;;;5090268;27;20485;-75
2023/03/06 08:57:15;;;;;;;3.70;0.90;;;2.80;83.40;;;;;;5089576;28;20146;-75
2023/03/06 08:59:42;;;;;;;3.88;0.70;;;2.90;83.70;;;;;;5071102;28;20101;-75
2023/03/06 09:02:13;;;;;;;3.13;0.80;;;2.90;83.50;;;;;;5089941;28;20048;-75
2023/03/06 09:04:41;;;;;;;3.88;0.50;;;2.90;83.50;;;;;;5094885;27;20049;-75
2023/03/06 09:07:08;;;;;;;2.25;0.50;;;3.00;83.50;;;;;;5082901;28;20152;-76
2023/03/06 09:09:35;;;;;;;2.43;0.40;;;3.00;83.40;;;;;;5095557;27;20170;-75
2023/03/06 09:12:02;;;;;;;2.08;0.40;;;3.10;83.40;;;;;;5084865;28;20076;-75
2023/03/06 09:14:31;;;;;;;3.78;0.40;;;3.10;83.40;;;;;;5084791;28;20141;-75
2023/03/06 09:16:58;;;;;;;2.55;0.50;;;3.20;83.40;;;;;;5084529;28;20072;-75
2023/03/06 09:19:25;;;;;;;2.78;0.50;;;3.30;83.50;;;;;;5082883;28;20580;-75
2023/03/06 09:21:52;;;;;;;2.70;0.43;;;3.30;83.40;;;;;;5084734;28;20139;-75
2023/03/06 09:24:19;;;;;;;4.05;0.60;;;3.30;83.40;;;;;;5090319;28;20057;-75
2023/03/06 09:26:46;;;;;;;2.40;0.70;;;3.40;83.50;;;;;;5085986;28;20706;-75
2023/03/06 09:29:15;;;;;;;3.08;0.80;;;3.50;83.60;;;;;;5092453;28;20926;-75
2023/03/06 09:31:43;;;;;;;2.10;0.40;;;3.50;83.70;;;;;;5090527;28;20052;-75
2023/03/06 09:34:10;;;;;;;2.67;0.60;;;3.60;83.70;;;;;;5091165;28;20068;-75
2023/03/06 09:36:37;;;;;;;3.33;0.47;;;3.70;83.70;;;;;;5097015;27;20049;-76
2023/03/06 09:39:04;;;;;;;2.17;0.40;;;3.70;83.70;;;;;;5094050;28;20048;-75
2023/03/06 09:41:33;;;;;;;3.08;0.40;;;3.80;83.60;;;;;;5085098;28;20450;-76
2023/03/06 09:44:04;;;;;;;2.20;0.40;;;3.90;83.50;;;;;;5088079;28;20072;-75
2023/03/06 09:46:54;;;;;;;2.93;0.40;;;3.90;83.50;;;;;;5082240;27;20827;-75
2023/03/06 09:49:37;;;;;;;4.00;0.57;;;4.00;83.40;;;;;;5075966;28;20535;-75
2023/03/06 09:52:15;;;;;;;3.38;0.50;;;4.10;83.40;;;;;;5086418;28;20052;-75
2023/03/06 09:54:44;;;;;;;2.13;0.30;;;4.10;83.20;;;;;;5081299;28;20053;-75
2023/03/06 09:57:19;;;;;;;2.10;0.20;;;4.20;83.20;;;;;;5087907;28;20239;-77
2023/03/06 09:59:50;;;;;;;3.37;0.30;;;4.30;83.00;;;;;;5078851;28;20157;-77
2023/03/06 10:02:26;;;;;;;1.75;0.17;;;4.30;82.90;;;;;;5108957;27;20144;-77
2023/03/06 10:04:59;;;;;;;3.30;0.40;;;4.40;82.70;;;;;;5086363;28;20053;-75
2023/03/06 10:07:41;;;;;;;3.10;0.30;;;4.50;82.60;;;;;;5066761;28;20049;-77
2023/03/06 10:10:17;;;;;;;2.58;0.22;;;4.50;82.20;;;;;;5080868;28;20084;-76
2023/03/06 10:12:52;;;;;;;2.97;0.13;;;4.60;82.10;;;;;;5084726;28;20144;-77
2023/03/06 10:15:23;;;;;;;3.85;0.77;;;4.70;81.90;;;;;;5084557;28;20143;-75
2023/03/06 10:17:52;;;;;;;2.53;0.10;;;4.70;81.30;;;;;;5081567;28;20056;-75
2023/03/06 10:20:22;;;;;;;3.13;0.20;;;4.80;80.50;;;;;;5113994;27;20573;-75
2023/03/06 10:23:09;;;;;;;1.85;0.20;;;4.90;80.10;;;;;;5081145;28;20487;-76
2023/03/06 10:25:44;;;;;;;2.13;0.20;;;4.90;80.20;;;;;;5081378;28;20512;-75
2023/03/06 10:28:16;;;;;;;3.15;0.20;;;5.00;80.00;;;;;;5081382;28;20548;-76
2023/03/06 10:30:51;;;;;;;3.30;0.20;;;5.00;79.80;;;;;;5077027;28;20203;-76
2023/03/06 10:33:27;;;;;;;3.40;0.20;;;5.10;79.80;;;;;;5084761;28;20374;-75
2023/03/06 10:35:55;;;;;;;3.13;0.17;;;5.10;77.20;;;;;;5082962;28;20057;-76
2023/03/06 10:38:24;;;;;;;3.03;0.20;;;5.10;75.20;;;;;;5082569;28;20068;-77
2023/03/06 10:41:02;;;;;;;1.42;0.20;;;5.20;74.10;;;;;;5062692;28;20153;-77
2023/03/06 10:43:29;;;;;;;2.95;0.30;;;5.20;73.20;;;;;;5082822;28;20649;-76
2023/03/06 10:45:56;;;;;;;4.28;0.38;;;5.30;73.40;;;;;;5110370;27;20048;-76
2023/03/06 10:48:26;;;;;;;3.75;0.30;;;5.30;74.20;;;;;;5080383;28;20118;-74
2023/03/06 10:51:09;;;;;;;2.87;0.20;;;5.30;73.00;;;;;;5068506;28;20074;-72
2023/03/06 10:53:36;;;;;;;3.65;0.43;;;5.30;72.90;;;;;;5086066;28;20052;-73
2023/03/06 10:56:04;;;;;;;4.03;0.20;;;5.30;72.60;;;;;;5084790;28;20099;-74
2023/03/06 10:58:32;;;;;;;1.73;0.20;;;5.30;72.60;;;;;;5087130;28;20048;-74
2023/03/06 11:01:06;;;;;;;2.40;0.20;;;5.30;70.60;;;;;;5081183;28;20083;-74
2023/03/06 11:03:36;;;;;;;3.20;0.33;;;5.30;68.00;;;;;;5063383;28;20138;-73
2023/03/06 11:06:10;;;;;;;3.85;0.20;;;5.40;69.20;;;;;;5089135;28;20179;-73
2023/03/06 11:08:37;;;;;;;2.22;0.40;;;5.50;71.10;;;;;;5083582;28;20056;-73
2023/03/06 11:11:06;;;;;;;1.15;0.20;;;5.50;67.20;;;;;;5087677;28;20079;-74
2023/03/06 11:13:36;;;;;;;2.45;0.30;;;5.50;67.50;;;;;;5078820;28;20139;-76
2023/03/06 11:16:17;;;;;;;5.57;0.30;;;5.50;69.60;;;;;;5082290;28;20147;-76
2023/03/06 11:18:56;;;;;;;2.38;0.30;;;5.60;68.70;;;;;;5083691;28;20049;-75
2023/03/06 11:21:30;;;;;;;3.17;0.40;;;5.60;68.00;;;;;;5109689;27;20048;-75
2023/03/06 11:24:02;;;;;;;3.03;0.10;;;5.60;68.00;;;;;;5063263;28;20132;-75
2023/03/06 11:26:37;;;;;;;1.63;0.10;;;5.60;67.70;;;;;;5082005;28;20055;-74
2023/03/06 11:29:22;;;;;;;1.50;0.20;;;5.60;67.40;;;;;;5076753;28;20140;-75
2023/03/06 11:31:52;;;;;;;3.05;0.28;;;5.60;67.90;;;;;;5075391;28;20550;-75
2023/03/06 11:34:28;;;;;;;3.15;0.30;;;5.60;67.00;;;;;;5077866;28;20150;-75
2023/03/06 11:36:59;;;;;;;1.70;0.20;;;5.70;67.80;;;;;;5077013;28;20072;-76
2023/03/06 11:39:34;;;;;;;2.53;0.20;;;5.70;67.00;;;;;;5080018;28;20119;-76
2023/03/06 11:42:09;;;;;;;1.70;0.10;;;5.70;64.60;;;;;;5077666;28;20044;-76
2023/03/06 11:44:49;;;;;;;1.98;0.25;;;5.70;64.50;;;;;;5074960;28;21008;-76
2023/03/06 11:47:19;;;;;;;2.47;0.20;;;5.60;64.70;;;;;;5080971;28;20060;-75
2023/03/06 11:49:52;;;;;;;1.35;0.15;;;5.60;65.50;;;;;;5076156;28;20139;-74
2023/03/06 11:52:23;;;;;;;2.97;0.30;;;5.60;63.90;;;;;;5082539;28;20148;-75
2023/03/06 11:54:55;;;;;;;2.17;0.30;;;5.60;64.10;;;;;;5080588;28;20055;-74
2023/03/06 11:57:29;;;;;;;1.73;0.22;;;5.50;63.60;;;;;;5086734;28;20585;-74
2023/03/06 12:00:21;;;;;;;3.00;0.40;;;5.50;63.00;;;;;;5086581;28;20116;-74
2023/03/06 12:03:12;;;;;;;1.70;0.20;;;5.50;64.30;;;;;;5089025;28;20140;-74
2023/03/06 12:05:46;;;;;;;3.05;0.40;;;5.50;65.00;;;;;;5071995;28;20085;-74
2023/03/06 12:08:28;;;;;;;4.13;0.43;;;5.50;64.10;;;;;;5092835;28;20056;-74
2023/03/06 12:11:01;;;;;;;3.42;0.50;;;5.50;64.40;;;;;;5087991;28;20049;-77
2023/03/06 12:13:48;;;;;;;1.35;0.20;;;5.50;64.60;;;;;;5079977;28;20644;-76
2023/03/06 12:16:52;;;;;;;3.78;0.40;;;5.50;64.90;;;;;;5082311;28;20603;-75
2023/03/06 12:19:36;;;;;;;3.55;0.40;;;5.50;65.40;;;;;;5081192;28;20500;-76
2023/03/06 12:22:20;;;;;;;3.27;0.43;;;5.50;64.60;;;;;;5111149;27;20060;-75
2023/03/06 12:25:11;;;;;;;3.08;0.30;;;5.50;64.00;;;;;;5080104;28;20190;-75
2023/03/06 12:27:44;;;;;;;4.32;0.93;;;5.50;64.00;;;;;;5065715;28;20087;-75
2023/03/06 12:30:39;;;;;;;2.22;0.50;;;5.50;63.80;;;;;;5088191;28;20531;-75
2023/03/06 12:33:17;;;;;;;3.38;0.70;;;5.50;63.40;;;;;;5083612;28;20592;-76
2023/03/06 12:35:56;;;;;;;2.67;0.30;;;5.50;63.80;;;;;;5079080;28;20057;-77
2023/03/06 12:38:55;;;;;;;2.33;0.50;;;5.60;63.40;;;;;;5085791;28;20059;-77
2023/03/06 12:41:33;;;;;;;4.53;0.60;;;5.60;63.00;;;;;;5092435;27;20131;-77
2023/03/06 12:44:32;;;;;;;2.72;0.43;;;5.70;63.10;;;;;;5091456;28;20194;-77
2023/03/06 12:47:02;;;;;;;3.17;0.57;;;5.80;62.60;;;;;;5107523;27;20591;-77
2023/03/06 12:49:30;;;;;;;4.17;0.47;;;5.90;62.50;;;;;;5085841;28;20052;-77
2023/03/06 12:51:59;;;;;;;4.43;0.65;;;6.00;62.10;;;;;;5091261;28;20049;-77
2023/03/06 12:54:31;;;;;;;3.13;0.70;;;6.00;62.10;;;;;;5096787;28;20572;-77
2023/03/06 12:57:00;;;;;;;4.03;0.90;;;6.10;62.30;;;;;;5114550;27;20148;-76
2023/03/06 12:59:41;;;;;;;4.55;0.77;;;6.20;62.20;;;;;;5092609;28;20548;-76
2023/03/06 13:02:56;;;;;;;4.87;0.90;;;6.20;61.60;;;;;;5070780;28;20677;-76
2023/03/06 13:05:33;;;;;;;3.25;0.70;;;6.30;61.10;;;;;;5073254;28;20106;-76
2023/03/06 13:08:29;;;;;;;4.13;0.68;;;6.30;60.20;;;;;;5111371;27;20073;-76
2023/03/06 13:11:22;;;;;;;3.92;0.68;;;6.30;60.80;;;;;;5106499;27;20467;-76
2023/03/06 13:13:50;;;;;;;3.70;0.70;;;6.30;61.30;;;;;;5088196;28;20566;-75